createdAt,value
2023-04-18T00:02:23.363Z,98575.22
2023-04-18T00:04:50.563Z,98583.13
2023-04-18T00:07:17.812Z,98586.66
2023-04-18T00:09:44.834Z,98579.28
2023-04-18T00:12:11.849Z,98582.03
2023-04-18T00:14:38.586Z,98581.47
2023-04-18T00:17:09.507Z,98583.34
2023-04-18T00:19:37.685Z,98587.19
2023-04-18T00:22:04.513Z,98580.38
2023-04-18T00:24:31.595Z,98586.88
2023-04-18T00:26:58.477Z,98594.75
2023-04-18T00:29:25.228Z,98585.44
2023-04-18T00:31:51.973Z,98581.97
2023-04-18T00:34:18.766Z,98575.44
2023-04-18T00:36:45.488Z,98582.28
2023-04-18T00:39:12.402Z,98583.09
2023-04-18T00:41:39.127Z,98586.06
2023-04-18T00:44:06.233Z,98579.53
2023-04-18T00:46:33.154Z,98585.53
2023-04-18T00:49:00.163Z,98587.19
2023-04-18T00:51:28.016Z,98588.56
2023-04-18T00:53:54.830Z,98584.75
2023-04-18T00:56:23.849Z,98586.34
2023-04-18T00:58:51.225Z,98591.53
2023-04-18T01:01:18.296Z,98588.56
2023-04-18T01:03:45.219Z,98581.44
2023-04-18T01:06:12.166Z,98582.00
2023-04-18T01:08:39.010Z,98579.25
2023-04-18T01:11:06.159Z,98582.53
2023-04-18T01:13:32.919Z,98582.00
2023-04-18T01:15:59.804Z,98580.06
2023-04-18T01:18:27.355Z,98574.38
2023-04-18T01:20:57.110Z,98571.13
2023-04-18T01:23:23.900Z,98573.56
2023-04-18T01:25:51.091Z,98575.19
2023-04-18T01:28:19.435Z,98571.66
2023-04-18T01:30:46.315Z,98573.28
2023-04-18T01:33:13.013Z,98569.75
2023-04-18T01:35:39.734Z,98576.81
2023-04-18T01:38:06.457Z,98574.38
2023-04-18T01:40:33.373Z,98576.00
2023-04-18T01:43:00.685Z,98571.88
2023-04-18T01:45:27.405Z,98571.06
2023-04-18T01:47:54.210Z,98568.84
2023-04-18T01:50:21.092Z,98571.56
2023-04-18T01:52:47.844Z,98566.94
2023-04-18T01:55:14.695Z,98563.69
2023-04-18T01:57:41.445Z,98568.28
2023-04-18T02:00:08.941Z,98569.13
2023-04-18T02:02:35.779Z,98567.75
2023-04-18T02:05:02.571Z,98556.06
2023-04-18T02:07:29.344Z,98561.19
2023-04-18T02:09:56.030Z,98562.28
2023-04-18T02:12:22.809Z,98561.75
2023-04-18T02:14:54.492Z,98562.84
2023-04-18T02:17:23.370Z,98567.19
2023-04-18T02:19:51.446Z,98578.06
2023-04-18T02:22:18.934Z,98569.63
2023-04-18T02:24:46.023Z,98575.34
2023-04-18T02:27:13.114Z,98571.25
2023-04-18T02:29:39.995Z,98579.12
2023-04-18T02:32:07.251Z,98569.34
2023-04-18T02:34:34.204Z,98571.78
2023-04-18T02:37:01.060Z,98571.50
2023-04-18T02:39:27.797Z,98575.34
2023-04-18T02:41:54.620Z,98581.31
2023-04-18T02:44:21.437Z,98576.94
2023-04-18T02:46:48.271Z,98584.56
2023-04-18T02:49:14.993Z,98581.84
2023-04-18T02:51:41.715Z,98575.59
2023-04-18T02:54:08.397Z,98585.66
2023-04-18T02:56:39.940Z,98575.87
2023-04-18T02:59:07.280Z,98587.56
2023-04-18T03:01:34.611Z,98590.81
2023-04-18T03:04:01.394Z,98584.56
2023-04-18T03:06:28.220Z,98592.75
2023-04-18T03:08:55.830Z,98587.56
2023-04-18T03:11:22.789Z,98590.56
2023-04-18T03:13:49.650Z,98590.28
2023-04-18T03:16:16.868Z,98588.66
2023-04-18T03:18:43.842Z,98585.38
2023-04-18T03:21:11.472Z,98595.16
2023-04-18T03:23:38.381Z,98600.31
2023-04-18T03:26:07.088Z,98590.53
2023-04-18T03:28:34.200Z,98599.78
2023-04-18T03:31:01.201Z,98602.22
2023-04-18T03:33:28.864Z,98603.53
2023-04-18T03:35:55.661Z,98596.22
2023-04-18T03:38:22.699Z,98597.59
2023-04-18T03:40:49.599Z,98601.09
2023-04-18T03:43:16.450Z,98600.31
2023-04-18T03:45:44.400Z,98591.81
2023-04-18T03:48:11.165Z,98593.72
2023-04-18T03:50:37.940Z,98596.72
2023-04-18T03:53:04.755Z,98604.03
2023-04-18T03:55:31.583Z,98604.31
2023-04-18T03:57:59.255Z,98600.16
2023-04-18T04:00:26.376Z,98601.06
2023-04-18T04:02:53.382Z,98604.88
2023-04-18T04:05:20.251Z,98607.06
2023-04-18T04:07:47.170Z,98611.94
2023-04-18T04:10:13.907Z,98616.56
2023-04-18T04:12:40.683Z,98616.50
2023-04-18T04:15:07.769Z,98620.06
2023-04-18T04:17:34.518Z,98617.62
2023-04-18T04:20:02.079Z,98621.19
2023-04-18T04:22:28.813Z,98629.91
2023-04-18T04:24:57.833Z,98625.50
2023-04-18T04:27:25.138Z,98621.69
2023-04-18T04:29:52.369Z,98625.09
2023-04-18T04:32:20.438Z,98627.81
2023-04-18T04:34:47.325Z,98628.72
2023-04-18T04:37:14.946Z,98624.69
2023-04-18T04:39:41.674Z,98631.75
2023-04-18T04:42:09.760Z,98635.03
2023-04-18T04:44:37.497Z,98639.66
2023-04-18T04:47:04.364Z,98632.06
2023-04-18T04:49:31.432Z,98631.75
2023-04-18T04:52:00.099Z,98635.03
2023-04-18T04:54:28.247Z,98642.94
2023-04-18T04:56:55.005Z,98642.69
2023-04-18T04:59:21.794Z,98647.00
2023-04-18T05:02:01.077Z,98649.47
2023-04-18T05:04:28.057Z,98656.25
2023-04-18T05:06:55.063Z,98648.09
2023-04-18T05:09:21.826Z,98651.84
2023-04-18T05:11:49.510Z,98655.38
2023-04-18T05:14:17.683Z,98653.72
2023-04-18T05:16:44.668Z,98645.56
2023-04-18T05:19:11.538Z,98657.28
2023-04-18T05:21:38.297Z,98649.66
2023-04-18T05:24:05.042Z,98664.38
2023-04-18T05:26:31.859Z,98661.81
2023-04-18T05:28:58.592Z,98664.53
2023-04-18T05:31:29.083Z,98668.13
2023-04-18T05:33:55.976Z,98671.41
2023-04-18T05:36:22.881Z,98663.00
2023-04-18T05:38:49.803Z,98671.44
2023-04-18T05:41:16.590Z,98673.34
2023-04-18T05:43:48.251Z,98672.97
2023-04-18T05:46:21.337Z,98676.53
2023-04-18T05:48:48.542Z,98677.84
2023-04-18T05:51:15.366Z,98677.38
2023-04-18T05:53:42.094Z,98674.37
2023-04-18T05:56:08.888Z,98673.25
2023-04-18T05:58:35.666Z,98676.53
2023-04-18T06:01:02.957Z,98679.19
2023-04-18T06:03:29.784Z,98674.87
2023-04-18T06:05:56.948Z,98678.12
2023-04-18T06:08:23.845Z,98673.50
2023-04-18T06:10:50.614Z,98670.75
2023-04-18T06:13:17.325Z,98668.84
2023-04-18T06:15:44.104Z,98670.22
2023-04-18T06:18:10.984Z,98673.50
2023-04-18T06:20:37.856Z,98681.66
2023-04-18T06:23:04.640Z,98670.75
2023-04-18T06:25:31.459Z,98674.03
2023-04-18T06:27:58.202Z,98681.09
2023-04-18T06:30:24.931Z,98679.47
2023-04-18T06:32:51.765Z,98674.31
2023-04-18T06:35:18.709Z,98680.03
2023-04-18T06:37:45.902Z,98676.53
2023-04-18T06:40:13.000Z,98680.09
2023-04-18T06:42:39.827Z,98686.09
2023-04-18T06:45:07.207Z,98688.28
2023-04-18T06:47:34.086Z,98675.97
2023-04-18T06:50:00.934Z,98684.53
2023-04-18T06:52:27.672Z,98678.56
2023-04-18T06:54:54.589Z,98679.38
2023-04-18T06:57:21.398Z,98682.69
2023-04-18T06:59:48.177Z,98676.69
2023-04-18T07:02:15.461Z,98685.13
2023-04-18T07:04:42.364Z,98681.13
2023-04-18T07:07:09.139Z,98686.03
2023-04-18T07:09:35.974Z,98687.69
2023-04-18T07:12:03.170Z,98686.62
2023-04-18T07:14:30.448Z,98682.28
2023-04-18T07:16:58.680Z,98689.09
2023-04-18T07:19:25.541Z,98698.88
2023-04-18T07:21:52.363Z,98702.16
2023-04-18T07:24:19.176Z,98696.47
2023-04-18T07:26:46.019Z,98696.53
2023-04-18T07:29:12.774Z,98707.16
2023-04-18T07:31:39.558Z,98706.56
2023-04-18T07:34:07.585Z,98705.19
2023-04-18T07:36:38.172Z,98698.34
2023-04-18T07:39:05.992Z,98711.97
2023-04-18T07:41:35.622Z,98716.09
2023-04-18T07:44:06.838Z,98716.91
2023-04-18T07:46:43.185Z,98715.31
2023-04-18T07:49:11.823Z,98721.06
2023-04-18T07:51:38.850Z,98718.06
2023-04-18T07:54:05.882Z,98720.53
2023-04-18T07:56:32.694Z,98717.78
2023-04-18T07:58:59.472Z,98715.31
2023-04-18T08:01:27.295Z,98727.53
2023-04-18T08:03:55.163Z,98717.78
2023-04-18T08:06:22.293Z,98714.72
2023-04-18T08:08:49.155Z,98714.72
2023-04-18T08:11:15.932Z,98714.19
2023-04-18T08:13:42.677Z,98722.69
2023-04-18T08:16:09.617Z,98722.75
2023-04-18T08:18:36.441Z,98726.84
2023-04-18T08:21:03.453Z,98733.69
2023-04-18T08:23:30.197Z,98733.19
2023-04-18T08:25:57.020Z,98726.94
2023-04-18T08:28:23.876Z,98734.34
2023-04-18T08:30:52.145Z,98728.59
2023-04-18T08:33:18.928Z,98739.50
2023-04-18T08:35:46.070Z,98742.53
2023-04-18T08:38:13.337Z,98742.19
2023-04-18T08:40:40.117Z,98750.16
2023-04-18T08:43:12.392Z,98751.19
2023-04-18T08:45:40.191Z,98758.56
2023-04-18T08:48:07.693Z,98755.06
2023-04-18T08:50:34.540Z,98756.44
2023-04-18T08:53:01.524Z,98760.81
2023-04-18T08:55:28.430Z,98769.53
2023-04-18T08:57:56.181Z,98764.97
2023-04-18T09:00:23.770Z,98769.03
2023-04-18T09:02:55.185Z,98764.13
2023-04-18T09:05:24.348Z,98763.22
2023-04-18T09:07:53.254Z,98771.44
2023-04-18T09:10:33.978Z,98771.66
2023-04-18T09:13:05.628Z,98770.62
2023-04-18T09:15:32.542Z,98775.50
2023-04-18T09:18:03.106Z,98775.47
2023-04-18T09:20:37.872Z,98776.84
2023-04-18T09:23:10.983Z,98788.91
2023-04-18T09:25:48.165Z,98782.37
2023-04-18T09:28:33.196Z,98780.16
2023-04-18T09:31:11.920Z,98784.03
2023-04-18T09:33:43.138Z,98784.31
2023-04-18T09:36:19.396Z,98783.25
2023-04-18T09:38:47.806Z,98789.22
2023-04-18T09:41:20.686Z,98782.69
2023-04-18T09:43:48.663Z,98789.22
2023-04-18T09:46:17.738Z,98784.06
2023-04-18T09:48:44.689Z,98789.47
2023-04-18T09:51:15.046Z,98787.31
2023-04-18T09:53:47.829Z,98790.88
2023-04-18T09:56:28.502Z,98789.50
2023-04-18T09:59:08.723Z,98781.91
2023-04-18T10:01:36.583Z,98792.88
2023-04-18T10:04:06.750Z,98791.78
2023-04-18T10:06:35.313Z,98790.16
2023-04-18T10:09:06.459Z,98794.97
2023-04-18T10:11:33.470Z,98795.59
2023-04-18T10:14:09.875Z,98792.06
2023-04-18T10:16:38.806Z,98800.28
2023-04-18T10:19:25.945Z,98796.16
2023-04-18T10:21:58.415Z,98791.78
2023-04-18T10:24:50.378Z,98788.50
2023-04-18T10:27:17.803Z,98798.31
2023-04-18T10:29:49.100Z,98797.81
2023-04-18T10:32:19.180Z,98794.50
2023-04-18T10:34:49.801Z,98790.34
2023-04-18T10:37:17.726Z,98791.44
2023-04-18T10:39:58.407Z,98796.31
2023-04-18T10:42:46.834Z,98790.09
2023-04-18T10:45:20.523Z,98790.69
2023-04-18T10:47:48.194Z,98788.41
2023-04-18T10:50:16.304Z,98788.41
2023-04-18T10:52:43.508Z,98788.41
2023-04-18T10:55:17.378Z,98789.78
2023-04-18T10:57:49.339Z,98793.59
2023-04-18T11:00:19.028Z,98784.06
2023-04-18T11:02:57.568Z,98783.00
2023-04-18T11:05:26.974Z,98788.44
2023-04-18T11:07:54.336Z,98777.88
2023-04-18T11:10:26.577Z,98777.06
2023-04-18T11:12:54.933Z,98779.25
2023-04-18T11:15:23.618Z,98776.25
2023-04-18T11:18:04.846Z,98777.66
2023-04-18T11:20:47.484Z,98777.91
2023-04-18T11:23:20.554Z,98774.34
2023-04-18T11:25:51.503Z,98783.13
2023-04-18T11:28:22.207Z,98776.84
2023-04-18T11:30:49.930Z,98778.97
2023-04-18T11:33:16.939Z,98781.91
2023-04-18T11:35:46.093Z,98786.59
2023-04-18T11:38:14.400Z,98786.03
2023-04-18T11:40:48.533Z,98787.94
2023-04-18T11:43:21.525Z,98789.03
2023-04-18T11:45:56.753Z,98784.97
2023-04-18T11:48:24.852Z,98794.50
2023-04-18T11:50:52.168Z,98792.81
2023-04-18T11:53:33.380Z,98789.31
2023-04-18T11:56:00.381Z,98788.78
2023-04-18T11:58:32.149Z,98794.25
2023-04-18T12:01:00.202Z,98789.66
2023-04-18T12:03:29.251Z,98788.25
2023-04-18T12:06:01.259Z,98784.75
2023-04-18T12:08:28.309Z,98780.41
2023-04-18T12:10:55.485Z,98782.88
2023-04-18T12:13:31.020Z,98782.63
2023-04-18T12:15:58.313Z,98782.94
2023-04-18T12:18:25.317Z,98786.78
2023-04-18T12:20:54.530Z,98794.72
2023-04-18T12:23:41.890Z,98794.75
2023-04-18T12:26:13.983Z,98789.31
2023-04-18T12:28:45.941Z,98783.31
2023-04-18T12:31:12.968Z,98783.09
2023-04-18T12:33:39.890Z,98786.63
2023-04-18T12:36:08.667Z,98789.37
2023-04-18T12:38:36.119Z,98788.03
2023-04-18T12:41:02.872Z,98790.22
2023-04-18T12:43:29.655Z,98785.91
2023-04-18T12:45:56.596Z,98787.53
2023-04-18T12:48:23.555Z,98791.38
2023-04-18T12:50:50.323Z,98785.62
2023-04-18T12:53:17.070Z,98790.00
2023-04-18T12:55:43.835Z,98787.56
2023-04-18T12:58:10.642Z,98788.66
2023-04-18T13:00:37.492Z,98791.38
2023-04-18T13:03:04.978Z,98793.06
2023-04-18T13:05:34.048Z,98798.25
2023-04-18T13:10:31.784Z,98801.53
2023-04-18T13:12:58.798Z,98802.63
2023-04-18T13:15:27.557Z,98802.06
2023-04-18T13:17:56.182Z,98797.16
2023-04-18T13:20:23.043Z,98794.97
2023-04-18T13:22:49.884Z,98799.06
2023-04-18T13:25:17.052Z,98805.06
2023-04-18T13:27:45.234Z,98797.94
2023-04-18T13:30:12.293Z,98803.97
2023-04-18T13:32:40.464Z,98803.41
2023-04-18T13:35:09.034Z,98797.94
2023-04-18T13:37:36.725Z,98796.56
2023-04-18T13:40:08.048Z,98794.09
2023-04-18T13:42:36.810Z,98789.41
2023-04-18T13:45:04.010Z,98787.47
2023-04-18T13:47:30.912Z,98780.59
2023-04-18T13:49:58.007Z,98783.03
2023-04-18T13:52:25.917Z,98780.28
2023-04-18T13:54:53.038Z,98782.19
2023-04-18T13:57:20.032Z,98789.53
2023-04-18T13:59:46.949Z,98784.56
2023-04-18T14:02:14.093Z,98787.53
2023-04-18T14:04:41.521Z,98787.78
2023-04-18T14:07:09.180Z,98788.31
2023-04-18T14:09:36.119Z,98791.56
2023-04-18T14:12:02.903Z,98795.53
2023-04-18T14:14:29.971Z,98796.13
2023-04-18T14:16:56.901Z,98795.50
2023-04-18T14:19:24.087Z,98794.69
2023-04-18T14:21:50.947Z,98797.41
2023-04-18T14:24:17.734Z,98797.13
2023-04-18T14:26:44.564Z,98803.34
2023-04-18T14:29:11.659Z,98803.34
2023-04-18T14:31:38.570Z,98805.75
2023-04-18T14:34:06.573Z,98807.66
2023-04-18T14:36:33.350Z,98800.84
2023-04-18T14:39:00.142Z,98802.75
2023-04-18T14:41:26.938Z,98796.75
2023-04-18T14:43:53.698Z,98799.19
2023-04-18T14:46:21.396Z,98800.53
2023-04-18T14:48:48.318Z,98802.44
2023-04-18T14:51:17.333Z,98801.62
2023-04-18T14:53:44.923Z,98808.16
2023-04-18T14:56:12.197Z,98801.62
2023-04-18T14:58:39.056Z,98808.69
2023-04-18T15:01:05.950Z,98799.94
2023-04-18T15:03:33.273Z,98810.03
2023-04-18T15:06:00.380Z,98814.13
2023-04-18T15:08:27.315Z,98806.75
2023-04-18T15:10:54.123Z,98800.47
2023-04-18T15:13:20.887Z,98815.47
2023-04-18T15:15:52.139Z,98814.38
2023-04-18T15:18:19.017Z,98815.22
2023-04-18T15:20:45.881Z,98808.94
2023-04-18T15:23:13.830Z,98807.03
2023-04-18T15:25:41.757Z,98804.28
2023-04-18T15:28:08.570Z,98808.38
2023-04-18T15:30:42.123Z,98813.00
2023-04-18T15:33:12.228Z,98805.09
2023-04-18T15:35:39.191Z,98804.28
2023-04-18T15:38:06.811Z,98800.75
2023-04-18T15:40:36.319Z,98803.19
2023-04-18T15:43:04.112Z,98808.91
2023-04-18T15:45:31.364Z,98805.94
2023-04-18T15:47:58.750Z,98799.41
2023-04-18T15:50:26.122Z,98793.94
2023-04-18T15:52:52.922Z,98805.66
2023-04-18T15:55:19.759Z,98805.66
2023-04-18T15:57:46.909Z,98802.69
2023-04-18T16:00:17.700Z,98807.31
2023-04-18T16:02:45.621Z,98800.75
2023-04-18T16:05:13.634Z,98800.75
2023-04-18T16:07:41.394Z,98802.38
2023-04-18T16:10:10.297Z,98802.13
2023-04-18T16:12:38.986Z,98798.84
2023-04-18T16:15:08.190Z,98799.34
2023-04-18T16:17:36.278Z,98802.66
2023-04-18T16:20:03.695Z,98802.91
2023-04-18T16:22:30.754Z,98804.53
2023-04-18T16:24:57.520Z,98799.34
2023-04-18T16:27:24.294Z,98804.81
2023-04-18T16:29:51.088Z,98802.91
2023-04-18T16:32:17.783Z,98802.91
2023-04-18T16:34:44.845Z,98812.37
2023-04-18T16:37:11.934Z,98800.94
2023-04-18T16:39:38.968Z,98798.72
2023-04-18T16:42:05.828Z,98805.81
2023-04-18T16:44:33.411Z,98799.00
2023-04-18T16:47:00.747Z,98800.91
2023-04-18T16:49:27.826Z,98799.25
2023-04-18T16:51:55.050Z,98797.63
2023-04-18T16:54:21.998Z,98806.59
2023-04-18T16:56:48.958Z,98800.34
2023-04-18T16:59:16.354Z,98807.94
2023-04-18T17:01:43.467Z,98806.88
2023-04-18T17:04:10.315Z,98796.50
2023-04-18T17:06:37.381Z,98805.47
2023-04-18T17:09:06.595Z,98811.19
2023-04-18T17:11:38.836Z,98807.91
2023-04-18T17:14:06.480Z,98804.94
2023-04-18T17:16:33.859Z,98803.28
2023-04-18T17:19:01.962Z,98813.34
2023-04-18T17:21:29.109Z,98810.06
2023-04-18T17:23:56.495Z,98805.97
2023-04-18T17:26:24.415Z,98798.88
2023-04-18T17:28:51.842Z,98796.97
2023-04-18T17:31:19.124Z,98808.12
2023-04-18T17:33:46.536Z,98802.09
2023-04-18T17:36:13.503Z,98806.16
2023-04-18T17:38:40.826Z,98808.31
2023-04-18T17:41:08.029Z,98811.03
2023-04-18T17:43:36.545Z,98812.63
2023-04-18T17:46:04.313Z,98812.06
2023-04-18T17:48:33.414Z,98812.34
2023-04-18T17:51:01.105Z,98816.66
2023-04-18T17:53:30.219Z,98810.91
2023-04-18T17:56:03.539Z,98814.75
2023-04-18T17:58:30.793Z,98813.94
2023-04-18T18:00:57.710Z,98817.47
2023-04-18T18:03:25.442Z,98815.81
2023-04-18T18:05:55.512Z,98813.38
2023-04-18T18:08:23.276Z,98814.19
2023-04-18T18:10:51.259Z,98818.56
2023-04-18T18:13:19.029Z,98816.91
2023-04-18T18:15:46.200Z,98823.69
2023-04-18T18:18:12.892Z,98823.91
2023-04-18T18:20:43.351Z,98825.59
2023-04-18T18:23:10.944Z,98826.31
2023-04-18T18:25:38.966Z,98818.47
2023-04-18T18:28:07.745Z,98822.28
2023-04-18T18:30:38.706Z,98832.06
2023-04-18T18:33:07.912Z,98825.25
2023-04-18T18:35:36.695Z,98832.59
2023-04-18T18:38:03.882Z,98832.06
2023-04-18T18:40:34.137Z,98833.16
2023-04-18T18:43:01.966Z,98835.31
2023-04-18T18:45:30.305Z,98833.94
2023-04-18T18:47:57.810Z,98832.59
2023-04-18T18:50:25.629Z,98842.09
2023-04-18T18:52:54.279Z,98836.91
2023-04-18T18:55:22.042Z,98845.00
2023-04-18T18:57:52.820Z,98843.69
2023-04-18T19:00:20.203Z,98845.06
2023-04-18T19:02:48.088Z,98841.78
2023-04-18T19:05:17.594Z,98848.59
2023-04-18T19:07:45.280Z,98835.78
2023-04-18T19:10:13.360Z,98836.09
2023-04-18T19:12:40.896Z,98837.47
2023-04-18T19:15:09.486Z,98843.44
2023-04-18T19:17:37.325Z,98843.16
2023-04-18T19:20:05.730Z,98846.72
2023-04-18T19:22:33.261Z,98846.16
2023-04-18T19:25:01.459Z,98848.03
2023-04-18T19:27:29.527Z,98846.97
2023-04-18T19:29:56.624Z,98843.44
2023-04-18T19:32:24.081Z,98844.50
2023-04-18T19:34:52.083Z,98849.91
2023-04-18T19:37:19.845Z,98844.75
2023-04-18T19:39:47.600Z,98855.06
2023-04-18T19:42:16.519Z,98854.81
2023-04-18T19:44:45.859Z,98856.97
2023-04-18T19:47:13.604Z,98862.94
2023-04-18T19:49:41.402Z,98871.66
2023-04-18T19:52:10.070Z,98863.25
2023-04-18T19:54:40.530Z,98864.25
2023-04-18T19:57:08.054Z,98868.56
2023-04-18T19:59:35.389Z,98868.88
2023-04-18T20:02:05.893Z,98866.16
2023-04-18T20:04:38.766Z,98863.34
2023-04-18T20:07:06.976Z,98862.31
2023-04-18T20:09:34.696Z,98863.13
2023-04-18T20:12:03.253Z,98864.16
2023-04-18T20:14:30.848Z,98863.13
2023-04-18T20:16:58.498Z,98862.31
2023-04-18T20:19:25.988Z,98865.84
2023-04-18T20:21:53.419Z,98863.59
2023-04-18T20:24:21.801Z,98871.78
2023-04-18T20:26:49.138Z,98861.16
2023-04-18T20:29:18.474Z,98866.84
2023-04-18T20:31:46.562Z,98870.06
2023-04-18T20:34:15.277Z,98875.50
2023-04-18T20:36:44.043Z,98873.87
2023-04-18T20:39:13.297Z,98872.72
2023-04-18T20:41:46.618Z,98876.53
2023-04-18T20:44:14.302Z,98866.47
2023-04-18T20:46:41.344Z,98872.97
2023-04-18T20:49:09.455Z,98869.94
2023-04-18T20:51:38.401Z,98875.91
2023-04-18T20:54:06.055Z,98872.94
2023-04-18T20:56:33.793Z,98872.66
2023-04-18T20:59:00.771Z,98868.81
2023-04-18T21:01:28.024Z,98873.19
2023-04-18T21:03:55.808Z,98872.09
2023-04-18T21:06:22.642Z,98874.25
2023-04-18T21:08:49.429Z,98864.69
2023-04-18T21:11:16.284Z,98865.41
2023-04-18T21:13:43.037Z,98864.34
2023-04-18T21:16:10.730Z,98860.22
2023-04-18T21:18:37.601Z,98866.47
2023-04-18T21:21:04.850Z,98865.66
2023-04-18T21:23:31.621Z,98864.00
2023-04-18T21:25:58.450Z,98860.97
2023-04-18T21:28:25.375Z,98862.38
2023-04-18T21:30:52.107Z,98858.53
2023-04-18T21:33:19.563Z,98864.78
2023-04-18T21:35:46.286Z,98858.78
2023-04-18T21:38:13.885Z,98857.13
2023-04-18T21:40:40.631Z,98862.56
2023-04-18T21:43:07.384Z,98856.63
2023-04-18T21:45:34.182Z,98854.41
2023-04-18T21:48:01.082Z,98859.59
2023-04-18T21:50:27.923Z,98861.16
2023-04-18T21:52:54.619Z,98863.97
2023-04-18T21:55:21.534Z,98853.59
2023-04-18T21:57:48.374Z,98857.37
2023-04-18T22:00:16.608Z,98853.84
2023-04-18T22:02:43.646Z,98856.00
2023-04-18T22:05:12.974Z,98850.56
2023-04-18T22:07:54.381Z,98848.91
2023-04-18T22:10:25.178Z,98850.22
2023-04-18T22:12:54.111Z,98856.25
2023-04-18T22:15:20.908Z,98851.88
2023-04-18T22:17:50.241Z,98857.53
2023-04-18T22:20:20.095Z,98854.81
2023-04-18T22:22:46.894Z,98860.19
2023-04-18T22:25:13.973Z,98857.47
2023-04-18T22:27:42.653Z,98855.31
2023-04-18T22:30:09.952Z,98844.72
2023-04-18T22:32:37.750Z,98849.91
2023-04-18T22:35:05.206Z,98849.06
2023-04-18T22:37:32.124Z,98856.97
2023-04-18T22:39:58.895Z,98854.50
2023-04-18T22:42:25.754Z,98846.34
2023-04-18T22:44:52.510Z,98846.84
2023-04-18T22:47:19.389Z,98848.50
2023-04-18T22:49:46.286Z,98844.97
2023-04-18T22:52:14.267Z,98849.56
2023-04-18T22:54:41.349Z,98847.94
2023-04-18T22:57:08.274Z,98850.06
2023-04-18T22:59:35.344Z,98849.25
2023-04-18T23:02:02.438Z,98842.19
2023-04-18T23:04:32.343Z,98839.47
2023-04-18T23:06:59.158Z,98839.72
2023-04-18T23:09:27.105Z,98839.72
2023-04-18T23:11:54.018Z,98841.87
2023-04-18T23:14:21.505Z,98831.00
2023-04-18T23:16:48.396Z,98828.53
2023-04-18T23:19:15.208Z,98836.94
2023-04-18T23:21:42.191Z,98828.47
2023-04-18T23:24:10.588Z,98828.63
2023-04-18T23:26:37.574Z,98828.69
2023-04-18T23:29:04.615Z,98822.69
2023-04-18T23:31:34.765Z,98819.41
2023-04-18T23:34:01.589Z,98818.81
2023-04-18T23:36:28.434Z,98812.81
2023-04-18T23:38:55.391Z,98815.78
2023-04-18T23:44:25.487Z,98810.88
2023-04-18T23:46:52.383Z,98805.09
2023-04-18T23:49:19.169Z,98803.47
2023-04-18T23:51:45.988Z,98806.69
2023-04-18T23:54:12.978Z,98797.16
2023-04-18T23:56:39.838Z,98793.62
2023-04-18T23:59:06.760Z,98797.37
